createdAt,value
2023-04-27T00:01:12.865Z,101850.47
2023-04-27T00:03:58.758Z,101859.22
2023-04-27T00:06:44.838Z,101863.75
2023-04-27T00:09:30.700Z,101858.53
2023-04-27T00:12:17.783Z,101853.25
2023-04-27T00:15:03.762Z,101852.59
2023-04-27T00:17:49.791Z,101854.22
2023-04-27T00:20:35.693Z,101854.31
2023-04-27T00:23:21.644Z,101852.50
2023-04-27T00:26:07.532Z,101850.91
2023-04-27T00:28:54.723Z,101852.59
2023-04-27T00:31:43.430Z,101850.25
2023-04-27T00:34:29.104Z,101854.59
2023-04-27T00:37:14.885Z,101848.75
2023-04-27T00:40:01.175Z,101839.50
2023-04-27T00:42:47.055Z,101844.53
2023-04-27T00:45:34.246Z,101840.28
2023-04-27T00:48:20.480Z,101848.22
2023-04-27T00:51:06.500Z,101852.91
2023-04-27T00:53:52.922Z,101854.69
2023-04-27T00:56:38.908Z,101850.75
2023-04-27T00:59:25.126Z,101854.53
2023-04-27T01:02:12.304Z,101855.88
2023-04-27T01:04:58.021Z,101854.19
2023-04-27T01:07:43.808Z,101848.53
2023-04-27T01:10:29.733Z,101853.22
2023-04-27T01:13:15.866Z,101854.34
2023-04-27T01:16:01.744Z,101855.66
2023-04-27T01:18:48.709Z,101862.88
2023-04-27T01:21:34.312Z,101860.72
2023-04-27T01:24:21.696Z,101865.50
2023-04-27T01:27:07.486Z,101871.22
2023-04-27T01:29:53.418Z,101868.94
2023-04-27T01:32:39.378Z,101874.41
2023-04-27T01:35:27.557Z,101876.41
2023-04-27T01:38:14.441Z,101880.28
2023-04-27T01:41:06.071Z,101881.75
2023-04-27T01:43:51.914Z,101888.38
2023-04-27T01:46:37.730Z,101897.56
2023-04-27T01:49:24.200Z,101903.91
2023-04-27T01:52:10.454Z,101907.25
2023-04-27T01:54:56.420Z,101927.38
2023-04-27T01:57:44.026Z,101934.81
2023-04-27T02:00:31.067Z,101944.75
2023-04-27T02:03:18.403Z,101959.09
2023-04-27T02:06:04.405Z,101973.47
2023-04-27T02:08:51.511Z,101977.25
2023-04-27T02:11:37.298Z,101982.91
2023-04-27T02:14:24.420Z,101985.09
2023-04-27T02:17:10.220Z,101988.81
2023-04-27T02:19:56.237Z,101995.25
2023-04-27T02:22:42.975Z,101992.84
2023-04-27T02:25:29.040Z,102003.59
2023-04-27T02:28:15.283Z,102010.88
2023-04-27T02:31:03.100Z,102012.25
2023-04-27T02:33:49.111Z,102020.22
2023-04-27T02:36:35.883Z,102016.97
2023-04-27T02:39:21.927Z,102016.44
2023-04-27T02:42:07.940Z,102017.66
2023-04-27T02:44:54.623Z,102018.75
2023-04-27T02:47:41.977Z,102026.94
2023-04-27T02:50:28.075Z,102024.66
2023-04-27T02:53:13.808Z,102028.38
2023-04-27T02:55:59.584Z,102027.91
2023-04-27T02:58:45.702Z,102023.63
2023-04-27T03:01:31.611Z,102030.09
2023-04-27T03:04:19.321Z,102029.47
2023-04-27T03:07:05.685Z,102037.56
2023-04-27T03:09:51.654Z,102037.91
2023-04-27T03:12:37.682Z,102047.72
2023-04-27T03:15:23.679Z,102047.09
2023-04-27T03:18:09.978Z,102049.03
2023-04-27T03:20:57.102Z,102059.56
2023-04-27T03:23:42.755Z,102066.50
2023-04-27T03:26:28.509Z,102071.69
2023-04-27T03:29:14.755Z,102075.19
2023-04-27T03:32:00.967Z,102076.09
2023-04-27T03:34:47.361Z,102086.66
2023-04-27T03:37:34.671Z,102090.28
2023-04-27T03:40:20.347Z,102093.69
2023-04-27T03:43:06.284Z,102099.78
2023-04-27T03:45:52.589Z,102103.47
2023-04-27T03:48:39.945Z,102113.97
2023-04-27T03:51:26.930Z,102114.19
2023-04-27T03:54:14.079Z,102115.19
2023-04-27T03:57:00.041Z,102124.16
2023-04-27T03:59:45.910Z,102117.34
2023-04-27T04:02:31.737Z,102121.97
2023-04-27T04:05:18.598Z,102118.56
2023-04-27T04:08:04.883Z,102117.09
2023-04-27T04:10:51.952Z,102113.03
2023-04-27T04:13:37.688Z,102126.22
2023-04-27T04:16:23.608Z,102127.28
2023-04-27T04:19:11.896Z,102120.50
2023-04-27T04:21:58.053Z,102115.53
2023-04-27T04:24:43.860Z,102124.38
2023-04-27T04:27:31.480Z,102120.13
2023-04-27T04:30:17.635Z,102119.34
2023-04-27T04:33:03.811Z,102121.09
2023-04-27T04:35:49.787Z,102122.03
2023-04-27T04:38:35.755Z,102122.06
2023-04-27T04:41:21.571Z,102132.56
2023-04-27T04:44:08.638Z,102131.69
2023-04-27T04:46:55.375Z,102126.59
2023-04-27T04:49:45.622Z,102140.69
2023-04-27T04:52:31.710Z,102144.22
2023-04-27T04:55:18.182Z,102146.00
2023-04-27T04:58:04.801Z,102147.84
2023-04-27T05:00:51.828Z,102157.34
2023-04-27T05:03:39.715Z,102170.38
2023-04-27T05:06:26.056Z,102173.78
2023-04-27T05:09:12.432Z,102183.38
2023-04-27T05:11:59.569Z,102190.16
2023-04-27T05:14:45.258Z,102194.41
2023-04-27T05:17:32.446Z,102202.88
2023-04-27T05:20:18.329Z,102215.78
2023-04-27T05:23:04.116Z,102222.47
2023-04-27T05:25:49.858Z,102229.16
2023-04-27T05:28:35.719Z,102240.19
2023-04-27T05:31:21.578Z,102241.66
2023-04-27T05:34:09.886Z,102258.03
2023-04-27T05:36:56.067Z,102265.69
2023-04-27T05:39:42.237Z,102260.09
2023-04-27T05:42:28.082Z,102278.03
2023-04-27T05:45:14.453Z,102271.59
2023-04-27T05:48:00.918Z,102271.22
2023-04-27T05:50:48.318Z,102272.50
2023-04-27T05:53:34.133Z,102275.66
2023-04-27T05:56:19.897Z,102266.38
2023-04-27T05:59:06.007Z,102271.78
2023-04-27T06:01:51.958Z,102263.38
2023-04-27T06:04:37.695Z,102264.50
2023-04-27T06:07:25.464Z,102262.06
2023-04-27T06:10:12.026Z,102257.72
2023-04-27T06:12:58.128Z,102243.63
2023-04-27T06:15:44.250Z,102237.13
2023-04-27T06:18:30.644Z,102222.72
2023-04-27T06:21:16.642Z,102209.25
2023-04-27T06:24:04.397Z,102191.97
2023-04-27T06:26:50.289Z,102186.09
2023-04-27T06:29:36.760Z,102178.41
2023-04-27T06:32:22.918Z,102162.03
2023-04-27T06:35:09.750Z,102160.53
2023-04-27T06:37:58.706Z,102152.91
2023-04-27T06:40:46.157Z,102146.63
2023-04-27T06:43:32.481Z,102132.44
2023-04-27T06:46:19.291Z,102127.09
2023-04-27T06:49:05.796Z,102123.97
2023-04-27T06:51:52.158Z,102101.66
2023-04-27T06:54:38.456Z,102092.84
2023-04-27T06:57:25.879Z,102088.91
2023-04-27T07:00:13.322Z,102076.28
2023-04-27T07:02:59.706Z,102050.34
2023-04-27T07:05:45.762Z,102046.56
2023-04-27T07:08:31.820Z,102040.97
2023-04-27T07:11:17.896Z,102026.28
2023-04-27T07:14:05.770Z,102008.09
2023-04-27T07:16:52.165Z,102008.53
2023-04-27T07:19:38.272Z,102010.63
2023-04-27T07:22:24.069Z,101978.44
2023-04-27T07:25:10.528Z,101977.06
2023-04-27T07:27:56.896Z,101959.00
2023-04-27T07:30:44.638Z,101955.81
2023-04-27T07:33:30.898Z,101958.41
2023-04-27T07:36:17.033Z,101943.81
2023-04-27T07:39:04.982Z,101940.75
2023-04-27T07:41:51.687Z,101909.09
2023-04-27T07:44:37.541Z,101907.31
2023-04-27T07:47:24.788Z,101881.53
2023-04-27T07:50:11.283Z,101872.34
2023-04-27T07:52:57.009Z,101857.59
2023-04-27T07:55:44.353Z,101836.47
2023-04-27T07:58:30.182Z,101830.16
2023-04-27T08:01:16.901Z,101822.97
2023-04-27T08:04:05.961Z,101778.94
2023-04-27T08:06:52.333Z,101770.78
2023-04-27T08:09:38.234Z,101773.72
2023-04-27T08:12:24.046Z,101757.03
2023-04-27T08:15:10.974Z,101766.69
2023-04-27T08:17:56.775Z,101763.41
2023-04-27T08:20:44.324Z,101753.25
2023-04-27T08:23:31.227Z,101731.78
2023-04-27T08:26:17.040Z,101731.69
2023-04-27T08:29:11.772Z,101731.34
2023-04-27T08:32:06.283Z,101709.91
2023-04-27T08:34:52.050Z,101718.69
2023-04-27T08:37:39.583Z,101721.53
2023-04-27T08:40:25.518Z,101711.53
2023-04-27T08:43:11.298Z,101721.81
2023-04-27T08:45:56.920Z,101709.88
2023-04-27T08:48:42.658Z,101686.75
2023-04-27T08:51:28.860Z,101667.06
2023-04-27T08:54:16.457Z,101661.41
2023-04-27T08:57:03.079Z,101659.78
2023-04-27T08:59:58.443Z,101644.91
2023-04-27T09:02:47.663Z,101645.72
2023-04-27T09:05:34.076Z,101645.94
2023-04-27T09:08:19.952Z,101655.84
2023-04-27T09:11:07.170Z,101656.81
2023-04-27T09:13:52.981Z,101651.63
2023-04-27T09:16:38.896Z,101653.63
2023-04-27T09:19:24.768Z,101651.34
2023-04-27T09:22:11.603Z,101648.41
2023-04-27T09:24:57.782Z,101643.13
2023-04-27T09:27:46.655Z,101641.84
2023-04-27T09:30:32.852Z,101648.06
2023-04-27T09:33:23.022Z,101646.19
2023-04-27T09:36:09.038Z,101653.03
2023-04-27T09:38:54.949Z,101649.25
2023-04-27T09:41:41.561Z,101642.50
2023-04-27T09:44:28.883Z,101644.97
2023-04-27T09:47:14.609Z,101642.66
2023-04-27T09:50:00.886Z,101644.72
2023-04-27T09:52:47.045Z,101643.09
2023-04-27T09:55:33.714Z,101630.75
2023-04-27T09:58:25.075Z,101629.69
2023-04-27T10:01:14.647Z,101632.72
2023-04-27T10:04:03.934Z,101626.97
2023-04-27T10:06:55.939Z,101625.75
2023-04-27T10:09:44.069Z,101627.53
2023-04-27T10:12:34.506Z,101624.19
2023-04-27T10:15:20.849Z,101624.50
2023-04-27T10:18:08.625Z,101621.78
2023-04-27T10:20:54.349Z,101633.31
2023-04-27T10:23:48.654Z,101636.22
2023-04-27T10:26:36.038Z,101623.16
2023-04-27T10:29:23.385Z,101628.97
2023-04-27T10:32:10.184Z,101630.16
2023-04-27T10:35:06.252Z,101631.00
2023-04-27T10:37:53.008Z,101637.47
2023-04-27T10:40:39.175Z,101628.75
2023-04-27T10:43:25.964Z,101627.34
2023-04-27T10:46:12.932Z,101620.53
2023-04-27T10:48:59.311Z,101615.19
2023-04-27T10:51:47.592Z,101619.59
2023-04-27T10:54:33.955Z,101622.53
2023-04-27T10:57:20.051Z,101619.75
2023-04-27T11:00:10.133Z,101614.72
2023-04-27T11:02:56.591Z,101612.19
2023-04-27T11:05:43.122Z,101609.72
2023-04-27T11:08:32.586Z,101611.44
2023-04-27T11:11:18.853Z,101604.19
2023-04-27T11:14:05.130Z,101608.31
2023-04-27T11:16:51.295Z,101609.78
2023-04-27T11:19:45.244Z,101605.25
2023-04-27T11:22:31.302Z,101606.84
2023-04-27T11:25:18.799Z,101617.84
2023-04-27T11:28:06.112Z,101615.06
2023-04-27T11:30:58.632Z,101616.94
2023-04-27T11:33:49.218Z,101611.56
2023-04-27T11:36:36.004Z,101608.97
2023-04-27T11:39:23.741Z,101610.63
2023-04-27T11:42:18.424Z,101606.16
2023-04-27T11:45:06.085Z,101606.63
2023-04-27T11:47:52.381Z,101605.00
2023-04-27T11:50:38.510Z,101604.75
2023-04-27T11:53:32.312Z,101596.16
2023-04-27T11:56:18.376Z,101597.72
2023-04-27T11:59:06.175Z,101595.84
2023-04-27T12:01:52.407Z,101590.72
2023-04-27T12:04:38.936Z,101582.34
2023-04-27T12:07:25.155Z,101590.06
2023-04-27T12:10:11.748Z,101582.91
2023-04-27T12:12:57.945Z,101586.78
2023-04-27T12:15:45.720Z,101586.00
2023-04-27T12:18:31.781Z,101586.28
2023-04-27T12:21:18.006Z,101587.91
2023-04-27T12:24:03.898Z,101577.91
2023-04-27T12:26:49.895Z,101573.47
2023-04-27T12:29:35.556Z,101582.94
2023-04-27T12:32:23.555Z,101572.53
2023-04-27T12:35:10.383Z,101578.50
2023-04-27T12:37:56.749Z,101571.81
2023-04-27T12:40:42.757Z,101576.59
2023-04-27T12:43:28.747Z,101567.78
2023-04-27T12:46:15.064Z,101563.47
2023-04-27T12:49:02.552Z,101567.63
2023-04-27T12:51:51.553Z,101565.34
2023-04-27T12:54:37.510Z,101568.69
2023-04-27T12:57:23.246Z,101563.25
2023-04-27T13:00:11.160Z,101563.47
2023-04-27T13:02:58.445Z,101563.28
2023-04-27T13:05:46.202Z,101565.75
2023-04-27T13:08:31.939Z,101566.75
2023-04-27T13:11:17.882Z,101562.06
2023-04-27T13:14:04.841Z,101565.94
2023-04-27T13:16:51.373Z,101558.47
2023-04-27T13:19:37.566Z,101561.91
2023-04-27T13:22:24.736Z,101559.44
2023-04-27T13:25:10.746Z,101563.56
2023-04-27T13:27:57.928Z,101563.78
2023-04-27T13:30:44.200Z,101560.72
2023-04-27T13:33:30.062Z,101566.94
2023-04-27T13:36:16.284Z,101564.16
2023-04-27T13:39:03.841Z,101563.66
2023-04-27T13:41:49.500Z,101554.72
2023-04-27T13:44:35.591Z,101553.75
2023-04-27T13:47:21.452Z,101555.00
2023-04-27T13:50:08.460Z,101565.25
2023-04-27T13:52:54.200Z,101560.75
2023-04-27T13:55:41.689Z,101557.50
2023-04-27T13:58:28.341Z,101551.59
2023-04-27T14:01:14.411Z,101551.47
2023-04-27T14:04:00.142Z,101552.72
2023-04-27T14:06:46.486Z,101553.13
2023-04-27T14:09:32.531Z,101540.19
2023-04-27T14:12:20.497Z,101544.91
2023-04-27T14:15:07.058Z,101544.75
2023-04-27T14:17:53.172Z,101536.53
2023-04-27T14:20:40.163Z,101534.34
2023-04-27T14:23:25.974Z,101526.34
2023-04-27T14:26:11.842Z,101524.81
2023-04-27T14:28:59.206Z,101524.84
2023-04-27T14:31:45.364Z,101521.44
2023-04-27T14:34:31.558Z,101525.63
2023-04-27T14:37:17.607Z,101524.69
2023-04-27T14:40:04.670Z,101515.09
2023-04-27T14:42:50.608Z,101522.38
2023-04-27T14:45:50.183Z,101520.31
2023-04-27T14:48:37.427Z,101519.31
2023-04-27T14:51:23.207Z,101513.00
2023-04-27T14:54:09.186Z,101510.91
2023-04-27T14:56:57.562Z,101502.84
2023-04-27T14:59:44.387Z,101506.28
2023-04-27T15:02:33.706Z,101504.03
2023-04-27T15:05:19.876Z,101511.28
2023-04-27T15:08:05.717Z,101504.63
2023-04-27T15:10:53.840Z,101508.28
2023-04-27T15:13:39.722Z,101508.19
2023-04-27T15:16:25.565Z,101506.44
2023-04-27T15:19:13.222Z,101508.28
2023-04-27T15:21:59.384Z,101505.69
2023-04-27T15:24:45.086Z,101507.00
2023-04-27T15:27:30.902Z,101501.34
2023-04-27T15:30:17.319Z,101506.97
2023-04-27T15:33:03.150Z,101503.03
2023-04-27T15:35:50.705Z,101503.00
2023-04-27T15:38:36.550Z,101500.69
2023-04-27T15:41:22.844Z,101503.81
2023-04-27T15:44:08.928Z,101498.22
2023-04-27T15:46:54.671Z,101498.00
2023-04-27T15:49:53.441Z,101488.00
2023-04-27T15:52:44.829Z,101486.50
2023-04-27T15:55:30.858Z,101487.72
2023-04-27T15:58:17.087Z,101484.97
2023-04-27T16:01:03.043Z,101483.59
2023-04-27T16:03:48.915Z,101475.75
2023-04-27T16:06:36.272Z,101479.03
2023-04-27T16:09:23.766Z,101478.97
2023-04-27T16:12:09.765Z,101479.81
2023-04-27T16:14:58.173Z,101471.78
2023-04-27T16:17:44.206Z,101473.38
2023-04-27T16:20:31.443Z,101466.91
2023-04-27T16:23:17.691Z,101462.28
2023-04-27T16:26:04.659Z,101466.63
2023-04-27T16:28:50.703Z,101470.16
2023-04-27T16:31:36.472Z,101460.44
2023-04-27T16:34:22.334Z,101456.25
2023-04-27T16:37:08.057Z,101460.72
2023-04-27T16:39:54.075Z,101453.88
2023-04-27T16:42:41.222Z,101460.44
2023-04-27T16:45:26.967Z,101464.09
2023-04-27T16:48:13.077Z,101466.66
2023-04-27T16:50:58.935Z,101464.13
2023-04-27T16:53:44.991Z,101468.06
2023-04-27T16:56:31.701Z,101469.75
2023-04-27T16:59:18.767Z,101467.75
2023-04-27T17:02:21.018Z,101466.63
2023-04-27T17:05:10.376Z,101470.28
2023-04-27T17:07:56.488Z,101468.88
2023-04-27T17:10:42.512Z,101459.34
2023-04-27T17:13:28.590Z,101463.41
2023-04-27T17:16:17.032Z,101457.94
2023-04-27T17:19:03.745Z,101457.38
2023-04-27T17:21:49.873Z,101452.59
2023-04-27T17:24:36.415Z,101443.38
2023-04-27T17:27:22.639Z,101448.59
2023-04-27T17:30:09.487Z,101444.50
2023-04-27T17:32:56.575Z,101444.78
2023-04-27T17:35:44.255Z,101447.34
2023-04-27T17:38:30.457Z,101448.88
2023-04-27T17:41:19.161Z,101451.81
2023-04-27T17:44:05.046Z,101453.91
2023-04-27T17:46:51.561Z,101461.34
2023-04-27T17:49:39.275Z,101458.53
2023-04-27T17:52:25.348Z,101458.25
2023-04-27T17:55:11.128Z,101454.88
2023-04-27T17:57:57.074Z,101451.78
2023-04-27T18:00:43.053Z,101454.47
2023-04-27T18:03:29.166Z,101474.34
2023-04-27T18:06:19.279Z,101494.13
2023-04-27T18:09:06.282Z,101497.31
2023-04-27T18:11:52.425Z,101519.72
2023-04-27T18:14:38.317Z,101534.13
2023-04-27T18:17:24.142Z,101543.09
2023-04-27T18:20:10.998Z,101540.47
2023-04-27T18:22:58.397Z,101550.13
2023-04-27T18:25:44.329Z,101553.56
2023-04-27T18:28:30.447Z,101561.31
2023-04-27T18:31:16.405Z,101590.56
2023-04-27T18:34:02.410Z,101581.03
2023-04-27T18:36:51.973Z,101593.63
2023-04-27T18:39:39.725Z,101608.13
2023-04-27T18:42:25.860Z,101631.56
2023-04-27T18:45:12.288Z,101650.09
2023-04-27T18:47:58.455Z,101648.19
2023-04-27T18:50:44.854Z,101640.25
2023-04-27T18:53:30.890Z,101646.66
2023-04-27T18:56:18.568Z,101672.84
2023-04-27T18:59:05.432Z,101696.66
2023-04-27T19:01:51.722Z,101723.91
2023-04-27T19:04:38.691Z,101713.19
2023-04-27T19:07:26.138Z,101701.00
2023-04-27T19:10:12.766Z,101700.53
2023-04-27T19:12:59.902Z,101723.06
2023-04-27T19:15:45.732Z,101724.63
2023-04-27T19:18:31.498Z,101711.63
2023-04-27T19:21:18.012Z,101737.16
2023-04-27T19:24:03.758Z,101735.81
2023-04-27T19:26:49.705Z,101739.03
2023-04-27T19:29:48.558Z,101755.44
2023-04-27T19:32:34.835Z,101765.03
2023-04-27T19:35:23.535Z,101776.22
2023-04-27T19:38:09.576Z,101797.28
2023-04-27T19:40:55.761Z,101803.97
2023-04-27T19:43:42.385Z,101807.19
2023-04-27T19:46:29.370Z,101797.84
2023-04-27T19:49:15.984Z,101815.28
2023-04-27T19:52:02.118Z,101837.00
2023-04-27T19:54:52.039Z,101827.81
2023-04-27T19:57:37.926Z,101833.75
2023-04-27T20:00:24.174Z,101822.63
2023-04-27T20:03:12.506Z,101839.69
2023-04-27T20:05:59.117Z,101870.22
2023-04-27T20:08:45.568Z,101830.38
2023-04-27T20:11:32.189Z,101841.41
2023-04-27T20:14:18.312Z,101815.78
2023-04-27T20:17:04.470Z,101811.16
2023-04-27T20:19:52.509Z,101830.53
2023-04-27T20:22:38.948Z,101874.84
2023-04-27T20:25:25.880Z,101887.53
2023-04-27T20:28:11.644Z,101896.94
2023-04-27T20:30:57.319Z,101897.03
2023-04-27T20:33:43.045Z,101914.16
2023-04-27T20:36:30.113Z,101910.13
2023-04-27T20:39:15.965Z,101912.25
2023-04-27T20:42:01.953Z,101907.34
2023-04-27T20:44:48.378Z,101915.69
2023-04-27T20:47:34.463Z,101915.44
2023-04-27T20:50:20.795Z,101929.91
2023-04-27T20:53:07.983Z,101937.47
2023-04-27T20:55:54.070Z,101939.34
2023-04-27T20:58:39.993Z,101943.34
2023-04-27T21:01:26.605Z,101941.94
2023-04-27T21:04:12.647Z,101957.31
2023-04-27T21:06:58.836Z,101955.81
2023-04-27T21:09:45.894Z,101970.28
2023-04-27T21:12:32.317Z,101973.19
2023-04-27T21:15:18.454Z,101983.94
2023-04-27T21:20:52.183Z,102011.78
2023-04-27T21:23:38.018Z,102004.13
2023-04-27T21:26:25.577Z,101997.16
2023-04-27T21:29:11.508Z,101999.97
2023-04-27T21:31:57.382Z,102009.88
2023-04-27T21:34:43.271Z,102008.44
2023-04-27T21:37:29.038Z,101992.91
2023-04-27T21:40:14.967Z,101997.34
2023-04-27T21:43:02.116Z,102013.25
2023-04-27T21:45:48.526Z,102021.28
2023-04-27T21:48:34.142Z,102025.88
2023-04-27T21:51:19.946Z,102022.47
2023-04-27T21:54:06.208Z,102029.53
2023-04-27T21:56:52.353Z,102035.94
2023-04-27T21:59:39.725Z,102032.66
2023-04-27T22:02:25.679Z,102034.78
2023-04-27T22:05:11.752Z,102030.63
2023-04-27T22:07:58.151Z,102034.28
2023-04-27T22:10:44.273Z,102034.56
2023-04-27T22:13:30.259Z,102033.91
2023-04-27T22:16:17.471Z,102030.56
2023-04-27T22:19:03.724Z,102021.88
2023-04-27T22:21:49.728Z,102016.78
2023-04-27T22:24:35.534Z,102024.03
2023-04-27T22:27:21.363Z,102032.03
2023-04-27T22:30:08.100Z,102033.16
2023-04-27T22:32:55.353Z,102020.09
2023-04-27T22:35:41.012Z,102009.84
2023-04-27T22:38:26.834Z,102002.00
2023-04-27T22:41:12.613Z,102003.03
2023-04-27T22:43:58.420Z,101997.94
2023-04-27T22:46:44.188Z,101989.28
2023-04-27T22:49:31.993Z,101993.72
2023-04-27T22:52:17.897Z,101991.22
2023-04-27T22:55:04.290Z,101978.22
2023-04-27T22:57:50.651Z,101989.63
2023-04-27T23:00:36.904Z,101979.25
2023-04-27T23:03:23.069Z,101978.41
2023-04-27T23:06:15.072Z,101981.22
2023-04-27T23:09:02.925Z,101969.75
2023-04-27T23:11:50.754Z,101965.31
2023-04-27T23:14:36.851Z,101973.13
2023-04-27T23:17:23.190Z,101971.44
2023-04-27T23:20:20.452Z,101982.06
2023-04-27T23:23:11.552Z,101976.88
2023-04-27T23:25:57.376Z,101947.13
2023-04-27T23:28:43.597Z,101941.94
2023-04-27T23:31:29.784Z,101948.81
2023-04-27T23:34:16.321Z,101933.09
2023-04-27T23:37:02.612Z,101945.44
2023-04-27T23:39:49.976Z,101942.63
2023-04-27T23:42:35.827Z,101935.84
2023-04-27T23:45:22.145Z,101933.34
2023-04-27T23:48:08.043Z,101922.97
2023-04-27T23:50:59.171Z,101920.16
2023-04-27T23:53:45.220Z,101908.53
2023-04-27T23:56:32.749Z,101911.94
2023-04-27T23:59:18.810Z,101907.88
